createdAt,value
2019-01-14T00:00:32.250Z,1.00
2019-01-14T00:03:13.042Z,0.93
2019-01-14T00:05:54.046Z,0.93
2019-01-14T00:08:34.706Z,1.03
2019-01-14T00:11:15.862Z,0.90
2019-01-14T00:13:56.534Z,0.90
2019-01-14T00:16:37.190Z,0.90
2019-01-14T00:19:18.271Z,1.00
2019-01-14T00:21:58.995Z,0.73
2019-01-14T00:24:39.886Z,0.80
2019-01-14T00:27:20.572Z,0.93
2019-01-14T00:30:01.839Z,0.60
2019-01-14T00:32:42.810Z,0.87
2019-01-14T00:35:23.646Z,1.10
2019-01-14T00:38:05.138Z,1.00
2019-01-14T00:40:46.054Z,1.10
2019-01-14T00:43:26.843Z,1.20
2019-01-14T00:46:07.315Z,1.20
2019-01-14T00:48:47.966Z,1.00
2019-01-14T00:51:28.852Z,0.93
2019-01-14T00:54:10.693Z,0.97
2019-01-14T00:56:51.903Z,0.70
2019-01-14T00:59:32.459Z,0.87
2019-01-14T01:02:13.226Z,0.60
2019-01-14T01:04:53.863Z,0.40
2019-01-14T01:07:34.885Z,0.50
2019-01-14T01:10:15.728Z,0.67
2019-01-14T01:12:56.654Z,0.73
2019-01-14T01:15:37.514Z,0.80
2019-01-14T01:18:18.478Z,0.90
2019-01-14T01:20:59.146Z,1.00
2019-01-14T01:23:40.146Z,0.93
2019-01-14T01:26:20.866Z,1.20
2019-01-14T01:29:01.586Z,1.10
2019-01-14T01:31:42.834Z,0.83
2019-01-14T01:34:23.574Z,1.40
2019-01-14T01:37:04.676Z,1.00
2019-01-14T01:39:45.437Z,0.83
2019-01-14T01:42:26.454Z,0.90
2019-01-14T01:45:07.242Z,1.20
2019-01-14T01:47:48.375Z,1.40
2019-01-14T01:50:29.003Z,1.13
2019-01-14T01:53:09.983Z,1.13
2019-01-14T01:55:50.575Z,1.50
2019-01-14T01:58:31.423Z,1.50
2019-01-14T02:01:12.042Z,0.90
2019-01-14T02:03:53.278Z,1.30
2019-01-14T02:06:39.168Z,1.43
2019-01-14T02:09:16.714Z,1.20
2019-01-14T02:11:57.515Z,1.97
2019-01-14T02:14:38.439Z,1.07
2019-01-14T02:17:18.990Z,1.30
2019-01-14T02:19:59.530Z,1.30
2019-01-14T02:22:40.186Z,1.57
2019-01-14T02:25:20.746Z,1.33
2019-01-14T02:28:01.372Z,1.73
2019-01-14T02:30:42.058Z,1.80
2019-01-14T02:33:22.718Z,2.03
2019-01-14T02:36:04.555Z,1.37
2019-01-14T02:38:45.507Z,1.50
2019-01-14T02:41:26.356Z,1.77
2019-01-14T02:44:07.382Z,2.30
2019-01-14T02:46:47.891Z,1.90
2019-01-14T02:49:28.956Z,1.90
2019-01-14T02:52:09.743Z,1.97
2019-01-14T02:54:50.380Z,2.10
2019-01-14T02:57:31.217Z,1.77
2019-01-14T03:00:12.451Z,1.80
2019-01-14T03:02:53.376Z,1.90
2019-01-14T03:05:34.072Z,1.83
2019-01-14T03:08:14.915Z,1.67
2019-01-14T03:10:55.547Z,1.87
2019-01-14T03:13:36.146Z,2.07
2019-01-14T03:16:16.737Z,1.70
2019-01-14T03:18:57.255Z,2.20
2019-01-14T03:21:37.744Z,2.10
2019-01-14T03:24:18.506Z,2.40
2019-01-14T03:26:58.950Z,2.10
2019-01-14T03:29:39.548Z,2.33
2019-01-14T03:32:20.303Z,2.43
2019-01-14T03:35:01.077Z,2.30
2019-01-14T03:37:41.834Z,2.70
2019-01-14T03:40:22.572Z,2.50
2019-01-14T03:43:03.306Z,2.10
2019-01-14T03:45:43.859Z,2.67
2019-01-14T03:48:24.530Z,2.30
2019-01-14T03:51:05.224Z,2.40
2019-01-14T03:53:46.029Z,2.47
2019-01-14T03:56:26.726Z,2.20
2019-01-14T03:59:07.147Z,2.40
2019-01-14T04:01:47.649Z,4.40
2019-01-14T04:04:28.198Z,2.47
2019-01-14T04:07:13.548Z,2.77
2019-01-14T04:09:51.243Z,2.87
2019-01-14T04:12:31.958Z,2.60
2019-01-14T04:15:12.922Z,2.27
2019-01-14T04:17:53.274Z,2.77
2019-01-14T04:20:34.358Z,3.23
2019-01-14T04:23:15.280Z,2.53
2019-01-14T04:25:56.306Z,2.60
2019-01-14T04:28:36.790Z,2.90
2019-01-14T04:31:17.795Z,2.73
2019-01-14T04:33:58.291Z,2.40
2019-01-14T04:36:39.032Z,2.47
2019-01-14T04:39:20.086Z,2.60
2019-01-14T04:42:00.562Z,2.70
2019-01-14T04:44:41.215Z,2.77
2019-01-14T04:47:22.402Z,2.60
2019-01-14T04:50:03.337Z,2.63
2019-01-14T04:52:43.898Z,2.73
2019-01-14T04:55:24.972Z,2.83
2019-01-14T04:58:05.788Z,2.93
2019-01-14T05:00:46.346Z,3.03
2019-01-14T05:03:26.907Z,3.10
2019-01-14T05:06:07.354Z,2.37
2019-01-14T05:08:47.846Z,2.70
2019-01-14T05:11:28.848Z,2.77
2019-01-14T05:14:09.528Z,2.90
2019-01-14T05:16:50.415Z,2.97
2019-01-14T05:19:31.003Z,2.70
2019-01-14T05:22:18.850Z,2.73
2019-01-14T05:25:27.472Z,3.03
2019-01-14T05:28:15.400Z,2.60
2019-01-14T05:31:03.308Z,2.97
2019-01-14T05:33:51.127Z,2.70
2019-01-14T05:36:39.045Z,3.03
2019-01-14T05:39:26.861Z,2.77
2019-01-14T05:42:14.779Z,3.33
2019-01-14T05:45:02.699Z,2.33
2019-01-14T05:47:50.631Z,2.73
2019-01-14T05:50:38.514Z,2.97
2019-01-14T05:53:26.354Z,2.47
2019-01-14T05:56:14.260Z,2.57
2019-01-14T05:59:02.074Z,2.93
2019-01-14T06:01:49.998Z,3.03
2019-01-14T06:04:37.907Z,2.27
2019-01-14T06:07:25.818Z,2.43
2019-01-14T06:10:06.207Z,2.60
2019-01-14T06:12:46.949Z,3.23
2019-01-14T06:15:27.810Z,2.70
2019-01-14T06:18:11.623Z,2.73
2019-01-14T06:20:52.536Z,2.73
2019-01-14T06:23:33.607Z,2.97
2019-01-14T06:26:14.574Z,3.03
2019-01-14T06:28:55.214Z,2.60
2019-01-14T06:31:36.191Z,3.33
2019-01-14T06:34:17.247Z,2.67
2019-01-14T06:36:57.988Z,2.43
2019-01-14T06:39:38.572Z,3.30
2019-01-14T06:42:19.231Z,2.50
2019-01-14T06:45:00.388Z,3.10
2019-01-14T06:47:41.263Z,3.37
2019-01-14T06:50:22.187Z,3.20
2019-01-14T06:53:02.942Z,3.53
2019-01-14T06:55:44.166Z,3.13
2019-01-14T06:58:24.969Z,3.67
2019-01-14T07:01:06.171Z,3.77
2019-01-14T07:03:46.792Z,3.40
2019-01-14T07:06:27.543Z,3.07
2019-01-14T07:09:08.271Z,3.23
2019-01-14T07:11:49.270Z,2.70
2019-01-14T07:14:29.611Z,2.70
2019-01-14T07:17:10.612Z,3.37
2019-01-14T07:19:51.704Z,3.73
2019-01-14T07:22:32.550Z,3.30
2019-01-14T07:25:13.218Z,2.87
2019-01-14T07:27:53.887Z,3.37
2019-01-14T07:30:34.615Z,3.17
2019-01-14T07:33:15.327Z,3.17
2019-01-14T07:35:55.991Z,3.17
2019-01-14T07:38:36.975Z,3.17
2019-01-14T07:41:17.871Z,3.13
2019-01-14T07:43:58.726Z,3.10
2019-01-14T07:46:39.392Z,3.27
2019-01-14T07:49:19.899Z,3.17
2019-01-14T07:52:00.557Z,4.30
2019-01-14T07:54:41.443Z,3.13
2019-01-14T07:57:21.983Z,3.77
2019-01-14T08:00:03.574Z,3.30
2019-01-14T08:02:44.622Z,2.60
2019-01-14T08:05:25.207Z,2.47
2019-01-14T08:08:05.847Z,2.50
2019-01-14T08:10:46.922Z,2.10
2019-01-14T08:13:27.585Z,2.60
2019-01-14T08:16:08.523Z,2.30
2019-01-14T08:18:49.587Z,2.70
2019-01-14T08:21:30.525Z,2.53
2019-01-14T08:24:11.099Z,2.90
2019-01-14T08:26:51.700Z,2.47
2019-01-14T08:29:32.527Z,2.20
2019-01-14T08:32:13.256Z,2.77
2019-01-14T08:34:53.925Z,2.27
2019-01-14T08:37:34.585Z,2.17
2019-01-14T08:40:15.563Z,2.37
2019-01-14T08:42:56.276Z,2.23
2019-01-14T08:45:36.775Z,2.23
2019-01-14T08:48:17.459Z,3.07
2019-01-14T08:50:58.403Z,2.30
2019-01-14T08:53:39.115Z,2.67
2019-01-14T08:56:19.687Z,2.23
2019-01-14T08:59:00.333Z,2.03
2019-01-14T09:01:40.819Z,2.10
2019-01-14T09:04:22.698Z,1.97
2019-01-14T09:07:03.420Z,2.70
2019-01-14T09:09:43.831Z,1.70
2019-01-14T09:12:24.309Z,2.10
2019-01-14T09:15:04.831Z,2.10
2019-01-14T09:17:45.981Z,2.20
2019-01-14T09:20:26.895Z,2.00
2019-01-14T09:23:07.735Z,2.00
2019-01-14T09:25:53.777Z,2.37
2019-01-14T09:28:31.191Z,1.77
2019-01-14T09:31:11.975Z,2.20
2019-01-14T09:33:52.581Z,1.90
2019-01-14T09:36:33.382Z,2.00
2019-01-14T09:39:13.980Z,2.30
2019-01-14T09:41:54.718Z,2.13
2019-01-14T09:44:35.239Z,2.07
2019-01-14T09:47:15.963Z,2.33
2019-01-14T09:49:56.883Z,1.90
2019-01-14T09:52:37.851Z,2.00
2019-01-14T09:55:18.317Z,2.23
2019-01-14T09:57:59.313Z,1.80
2019-01-14T10:00:40.095Z,1.80
2019-01-14T10:03:20.805Z,1.70
2019-01-14T10:06:01.277Z,1.83
2019-01-14T10:08:43.132Z,1.83
2019-01-14T10:11:24.206Z,1.47
2019-01-14T10:14:04.821Z,1.90
2019-01-14T10:16:45.951Z,2.10
2019-01-14T10:19:26.569Z,1.80
2019-01-14T10:22:07.439Z,1.40
2019-01-14T10:24:48.251Z,1.60
2019-01-14T10:27:28.609Z,2.07
2019-01-14T10:30:09.529Z,2.10
2019-01-14T10:32:50.320Z,2.10
2019-01-14T10:35:30.937Z,2.10
2019-01-14T10:38:11.767Z,2.13
2019-01-14T10:40:52.519Z,1.93
2019-01-14T10:43:33.399Z,1.90
2019-01-14T10:46:14.347Z,1.63
2019-01-14T10:48:54.927Z,1.93
2019-01-14T10:51:35.543Z,2.00
2019-01-14T10:54:15.858Z,2.60
2019-01-14T10:56:56.457Z,2.53
2019-01-14T10:59:37.299Z,2.40
2019-01-14T11:02:18.426Z,2.37
2019-01-14T11:04:59.141Z,2.47
2019-01-14T11:07:39.905Z,2.73
2019-01-14T11:10:20.708Z,2.43
2019-01-14T11:13:01.331Z,2.40
2019-01-14T11:15:41.995Z,2.60
2019-01-14T11:18:22.641Z,2.37
2019-01-14T11:21:03.191Z,2.27
2019-01-14T11:23:43.853Z,2.40
2019-01-14T11:26:24.774Z,2.70
2019-01-14T11:29:05.820Z,2.30
2019-01-14T11:31:46.687Z,2.53
2019-01-14T11:34:27.407Z,2.83
2019-01-14T11:37:08.094Z,2.50
2019-01-14T11:39:48.612Z,2.43
2019-01-14T11:42:29.380Z,2.73
2019-01-14T11:45:10.119Z,2.30
2019-01-14T11:47:50.730Z,2.13
2019-01-14T11:50:31.330Z,1.80
2019-01-14T11:53:12.220Z,1.73
2019-01-14T11:55:52.886Z,1.90
2019-01-14T11:58:33.464Z,2.20
2019-01-14T12:01:14.270Z,2.40
2019-01-14T12:03:55.081Z,2.40
2019-01-14T12:06:35.760Z,2.13
2019-01-14T12:09:16.420Z,2.00
2019-01-14T12:11:57.024Z,2.10
2019-01-14T12:14:37.522Z,1.83
2019-01-14T12:17:18.168Z,2.30
2019-01-14T12:19:58.658Z,2.10
2019-01-14T12:22:39.322Z,2.50
2019-01-14T12:25:20.108Z,2.20
2019-01-14T12:28:00.477Z,2.77
2019-01-14T12:30:41.817Z,2.80
2019-01-14T12:33:22.448Z,2.73
2019-01-14T12:36:03.099Z,1.50
2019-01-14T12:38:44.121Z,1.60
2019-01-14T12:41:25.258Z,1.60
2019-01-14T12:44:05.915Z,1.90
2019-01-14T12:46:46.463Z,1.97
2019-01-14T12:49:27.322Z,1.47
2019-01-14T12:52:07.998Z,2.10
2019-01-14T12:54:48.583Z,1.50
2019-01-14T12:57:29.730Z,1.60
2019-01-14T13:00:10.350Z,2.00
2019-01-14T13:02:50.931Z,1.80
2019-01-14T13:05:31.484Z,1.70
2019-01-14T13:08:12.154Z,1.73
2019-01-14T13:10:52.762Z,1.73
2019-01-14T13:13:33.350Z,1.70
2019-01-14T13:16:14.279Z,1.93
2019-01-14T13:18:55.162Z,1.80
2019-01-14T13:21:36.372Z,1.43
2019-01-14T13:24:16.958Z,1.23
2019-01-14T13:26:57.859Z,1.47
2019-01-14T13:29:38.514Z,1.80
2019-01-14T13:32:19.784Z,1.23
2019-01-14T13:35:00.433Z,1.63
2019-01-14T13:37:41.143Z,1.17
2019-01-14T13:40:21.490Z,1.30
2019-01-14T13:43:02.481Z,1.50
2019-01-14T13:45:43.562Z,1.80
2019-01-14T13:48:24.779Z,1.20
2019-01-14T13:51:05.457Z,1.60
2019-01-14T13:53:46.266Z,1.80
2019-01-14T13:56:26.721Z,1.97
2019-01-14T13:59:07.446Z,1.70
2019-01-14T14:01:48.142Z,1.97
2019-01-14T14:04:28.470Z,2.20
2019-01-14T14:07:09.046Z,1.97
2019-01-14T14:09:49.679Z,1.40
2019-01-14T14:12:30.702Z,1.73
2019-01-14T14:15:11.286Z,1.00
2019-01-14T14:17:52.122Z,1.00
2019-01-14T14:20:32.967Z,1.03
2019-01-14T14:23:13.651Z,1.10
2019-01-14T14:25:54.358Z,1.00
2019-01-14T14:28:35.257Z,1.20
2019-01-14T14:31:15.783Z,1.00
2019-01-14T14:33:56.651Z,0.97
2019-01-14T14:36:37.144Z,1.10
2019-01-14T14:39:18.074Z,1.17
2019-01-14T14:41:59.168Z,1.20
2019-01-14T14:44:39.961Z,1.17
2019-01-14T14:47:20.722Z,0.97
2019-01-14T14:50:01.514Z,1.57
2019-01-14T14:52:41.946Z,1.43
2019-01-14T14:55:22.400Z,1.80
2019-01-14T14:58:03.193Z,2.13
2019-01-14T15:00:43.792Z,2.60
2019-01-14T15:03:24.464Z,2.60
2019-01-14T15:06:04.967Z,2.80
2019-01-14T15:08:45.914Z,3.07
2019-01-14T15:11:26.477Z,2.77
2019-01-14T15:14:07.326Z,1.97
2019-01-14T15:16:47.960Z,2.10
2019-01-14T15:19:28.963Z,1.70
2019-01-14T15:22:09.694Z,1.80
2019-01-14T15:24:50.741Z,1.70
2019-01-14T15:27:31.351Z,2.03
2019-01-14T15:30:12.395Z,1.70
2019-01-14T15:32:53.416Z,1.70
2019-01-14T15:35:34.218Z,1.80
2019-01-14T15:38:14.727Z,1.53
2019-01-14T15:40:55.610Z,1.50
2019-01-14T15:43:36.038Z,2.13
2019-01-14T15:46:17.007Z,1.33
2019-01-14T15:48:57.658Z,1.87
2019-01-14T15:51:38.590Z,1.20
2019-01-14T15:54:19.450Z,1.23
2019-01-14T15:56:59.906Z,1.50
2019-01-14T15:59:40.798Z,1.50
2019-01-14T16:02:21.439Z,1.63
2019-01-14T16:05:02.391Z,1.33
2019-01-14T16:07:43.026Z,1.23
2019-01-14T16:10:24.050Z,1.20
2019-01-14T16:13:04.876Z,1.33
2019-01-14T16:15:45.548Z,1.30
2019-01-14T16:18:26.506Z,1.40
2019-01-14T16:21:07.358Z,2.00
2019-01-14T16:23:47.800Z,1.63
2019-01-14T16:26:29.020Z,1.47
2019-01-14T16:29:09.962Z,1.60
2019-01-14T16:31:50.638Z,1.60
2019-01-14T16:34:31.101Z,1.83
2019-01-14T16:37:11.746Z,1.70
2019-01-14T16:39:52.614Z,2.00
2019-01-14T16:42:33.312Z,2.10
2019-01-14T16:45:14.483Z,1.97
2019-01-14T16:47:55.062Z,1.77
2019-01-14T16:50:35.690Z,1.67
2019-01-14T16:53:16.446Z,1.50
2019-01-14T16:55:57.650Z,1.90
2019-01-14T16:58:38.016Z,1.73
2019-01-14T17:01:18.596Z,1.70
2019-01-14T17:03:59.330Z,1.83
2019-01-14T17:06:40.008Z,2.07
2019-01-14T17:09:20.410Z,1.70
2019-01-14T17:12:01.378Z,1.83
2019-01-14T17:14:42.134Z,1.40
2019-01-14T17:17:22.667Z,1.33
2019-01-14T17:20:03.700Z,1.23
2019-01-14T17:22:44.139Z,1.87
2019-01-14T17:25:24.789Z,2.60
2019-01-14T17:28:05.370Z,2.50
2019-01-14T17:30:46.072Z,2.63
2019-01-14T17:33:27.238Z,2.30
2019-01-14T17:36:07.890Z,2.40
2019-01-14T17:38:48.486Z,2.77
2019-01-14T17:41:29.534Z,2.80
2019-01-14T17:44:10.738Z,2.50
2019-01-14T17:46:51.600Z,2.07
2019-01-14T17:49:32.294Z,2.37
2019-01-14T17:52:12.918Z,2.77
2019-01-14T17:54:53.569Z,2.80
2019-01-14T17:57:34.082Z,2.37
2019-01-14T18:00:14.879Z,2.63
2019-01-14T18:02:55.876Z,3.20
2019-01-14T18:05:36.709Z,2.97
2019-01-14T18:08:17.415Z,2.53
2019-01-14T18:11:01.822Z,3.27
2019-01-14T18:13:40.947Z,3.10
2019-01-14T18:16:21.694Z,3.50
2019-01-14T18:19:02.889Z,3.70
2019-01-14T18:21:43.335Z,3.00
2019-01-14T18:24:24.306Z,2.80
2019-01-14T18:27:05.518Z,3.50
2019-01-14T18:29:46.414Z,3.00
2019-01-14T18:32:27.169Z,2.97
2019-01-14T18:35:07.866Z,3.03
2019-01-14T18:37:48.437Z,2.93
2019-01-14T18:40:33.852Z,2.87
2019-01-14T18:43:11.898Z,3.53
2019-01-14T18:45:53.044Z,2.87
2019-01-14T18:48:33.833Z,3.40
2019-01-14T18:51:14.890Z,2.93
2019-01-14T18:53:55.239Z,2.70
2019-01-14T18:56:36.157Z,2.60
2019-01-14T18:59:17.402Z,2.77
2019-01-14T19:01:57.678Z,3.00
2019-01-14T19:04:38.659Z,2.90
2019-01-14T19:07:19.301Z,3.20
2019-01-14T19:09:59.859Z,3.83
2019-01-14T19:12:40.687Z,2.60
2019-01-14T19:15:21.323Z,3.70
2019-01-14T19:18:02.490Z,2.73
2019-01-14T19:20:43.305Z,3.53
2019-01-14T19:23:24.599Z,3.00
2019-01-14T19:26:05.189Z,2.57
2019-01-14T19:28:45.734Z,2.67
2019-01-14T19:31:26.435Z,1.83
2019-01-14T19:34:06.962Z,2.20
2019-01-14T19:36:47.444Z,2.17
2019-01-14T19:39:27.911Z,2.67
2019-01-14T19:42:08.454Z,2.07
2019-01-14T19:44:49.110Z,2.37
2019-01-14T19:47:30.003Z,1.93
2019-01-14T19:50:10.574Z,2.20
2019-01-14T19:52:51.319Z,2.07
2019-01-14T19:55:32.100Z,2.40
2019-01-14T19:58:12.605Z,5.53
2019-01-14T20:00:53.526Z,2.47
2019-01-14T20:03:34.130Z,2.10
2019-01-14T20:06:14.822Z,1.93
2019-01-14T20:08:55.252Z,1.87
2019-01-14T20:11:36.130Z,2.37
2019-01-14T20:14:16.643Z,1.97
2019-01-14T20:16:57.369Z,2.20
2019-01-14T20:19:37.903Z,1.90
2019-01-14T20:22:18.792Z,2.20
2019-01-14T20:24:59.663Z,1.90
2019-01-14T20:27:40.796Z,2.00
2019-01-14T20:30:21.384Z,2.33
2019-01-14T20:33:02.355Z,2.10
2019-01-14T20:35:42.914Z,1.90
2019-01-14T20:38:23.719Z,2.00
2019-01-14T20:41:04.407Z,2.10
2019-01-14T20:43:45.194Z,2.67
2019-01-14T20:46:26.179Z,2.00
2019-01-14T20:49:06.746Z,2.50
2019-01-14T20:51:47.484Z,2.03
2019-01-14T20:54:28.234Z,1.53
2019-01-14T20:57:08.861Z,2.00
2019-01-14T20:59:49.861Z,1.77
2019-01-14T21:02:30.311Z,2.20
2019-01-14T21:05:11.029Z,2.30
2019-01-14T21:07:51.739Z,2.40
2019-01-14T21:10:32.900Z,2.30
2019-01-14T21:13:13.851Z,1.83
2019-01-14T21:15:54.454Z,3.30
2019-01-14T21:18:35.259Z,2.00
2019-01-14T21:21:15.835Z,2.03
2019-01-14T21:23:56.408Z,2.20
2019-01-14T21:26:37.138Z,1.90
2019-01-14T21:29:18.143Z,2.20
2019-01-14T21:31:58.671Z,1.80
2019-01-14T21:34:39.482Z,2.00
2019-01-14T21:37:20.148Z,1.70
2019-01-14T21:40:01.050Z,2.17
2019-01-14T21:42:41.983Z,2.00
2019-01-14T21:45:22.648Z,2.00
2019-01-14T21:48:03.648Z,2.50
2019-01-14T21:50:44.701Z,2.33
2019-01-14T21:53:25.269Z,3.70
2019-01-14T21:56:06.127Z,2.27
2019-01-14T21:58:46.847Z,2.40
2019-01-14T22:01:27.591Z,2.63
2019-01-14T22:04:08.468Z,2.30
2019-01-14T22:06:49.770Z,2.20
2019-01-14T22:09:30.540Z,2.27
2019-01-14T22:12:11.187Z,2.43
2019-01-14T22:14:51.863Z,1.83
2019-01-14T22:17:32.245Z,1.83
2019-01-14T22:20:13.324Z,1.70
2019-01-14T22:22:54.102Z,2.77
2019-01-14T22:25:34.969Z,1.93
2019-01-14T22:28:15.351Z,1.77
2019-01-14T22:30:56.146Z,2.27
2019-01-14T22:33:36.771Z,1.80
2019-01-14T22:36:17.421Z,2.03
2019-01-14T22:38:58.135Z,1.87
2019-01-14T22:41:45.538Z,1.80
2019-01-14T22:44:21.300Z,1.87
2019-01-14T22:47:04.966Z,1.80
2019-01-14T22:49:45.265Z,1.60
2019-01-14T22:52:26.175Z,1.57
2019-01-14T22:55:06.583Z,1.63
2019-01-14T22:57:47.211Z,1.83
2019-01-14T23:00:46.796Z,1.60
2019-01-14T23:03:27.159Z,1.47
2019-01-14T23:06:07.754Z,1.70
2019-01-14T23:08:48.523Z,1.73
2019-01-14T23:11:29.275Z,1.90
2019-01-14T23:14:10.015Z,2.07
2019-01-14T23:16:50.783Z,1.80
2019-01-14T23:19:31.248Z,2.00
2019-01-14T23:22:12.163Z,1.80
2019-01-14T23:24:52.755Z,1.63
2019-01-14T23:27:33.483Z,1.83
2019-01-14T23:30:14.107Z,1.60
2019-01-14T23:32:55.227Z,1.80
2019-01-14T23:35:35.791Z,1.30
2019-01-14T23:38:16.861Z,1.90
2019-01-14T23:40:57.169Z,3.07
2019-01-14T23:43:37.855Z,1.67
2019-01-14T23:46:18.539Z,1.50
2019-01-14T23:48:59.219Z,1.50
2019-01-14T23:51:39.946Z,1.43
2019-01-14T23:54:20.587Z,1.90
2019-01-14T23:57:01.239Z,1.67
2019-01-14T23:59:41.676Z,1.70
